createdAt,value
2023-05-27T00:22:32.236Z,72.78
2023-05-27T00:51:32.789Z,75.14
2023-05-27T01:20:31.905Z,77.07
2023-05-27T01:49:21.887Z,77.88
2023-05-27T02:18:30.070Z,74.42
2023-05-27T02:47:30.573Z,76.6
2023-05-27T03:16:28.645Z,76.72
2023-05-27T03:45:23.171Z,76.3
2023-05-27T04:14:22.831Z,69.15
2023-05-27T04:43:39.898Z,63.06
2023-05-27T05:12:47.288Z,59.7
2023-05-27T05:41:40.041Z,56.96
2023-05-27T06:10:42.766Z,53.9
2023-05-27T06:39:50.848Z,52.67
2023-05-27T07:09:00.862Z,52.89
2023-05-27T07:38:07.180Z,47.59
2023-05-27T08:07:10.724Z,45.8
2023-05-27T08:36:27.177Z,44.1
2023-05-27T09:05:28.333Z,39.89
2023-05-27T09:34:31.660Z,40.8
2023-05-27T10:03:24.042Z,44.1
2023-05-27T10:32:37.509Z,42.17
2023-05-27T11:01:27.394Z,43
2023-05-27T11:30:24.973Z,43.5
2023-05-27T11:59:32.862Z,41.67
2023-05-27T12:28:27.986Z,41.15
2023-05-27T12:57:29.091Z,41.63
2023-05-27T13:26:31.215Z,41.53
2023-05-27T13:55:32.030Z,39.77
2023-05-27T14:24:38.233Z,39.6
2023-05-27T14:53:34.801Z,39.48
2023-05-27T15:22:35.269Z,40.6
2023-05-27T15:51:37.250Z,40.22
2023-05-27T16:20:45.317Z,40.14
2023-05-27T16:49:34.170Z,39.93
2023-05-27T17:18:31.602Z,40.9
2023-05-27T17:47:25.574Z,40.09
2023-05-27T18:16:17.781Z,39.41
2023-05-27T18:45:08.456Z,39.51
2023-05-27T19:13:57.276Z,40.93
2023-05-27T19:42:53.932Z,43.12
2023-05-27T20:11:18.287Z,45.41
2023-05-27T20:39:41.665Z,46.68
2023-05-27T21:07:57.535Z,49.79
2023-05-27T21:36:19.871Z,50.72
2023-05-27T22:05:16.691Z,51.83
2023-05-27T22:34:13.192Z,54.77
2023-05-27T23:02:30.527Z,57.38
2023-05-27T23:30:45.757Z,58.77
2023-05-27T23:59:11.549Z,60.86
